This is the latest recevied weather packets stored in our database for station/object LZ1NAG-10. If no packets are shown the sender has not sent any weather packets the latest 10 day(s).
| Time | Temp. | Humidity | Pressure | Rain* | Wind** | Luminosity | Snow |
|---|---|---|---|---|---|---|---|
| 1777909675 | 17.22° C | 53% | 1021.3 hPa | - | - | - | - |
| 1777908775 | 17.78° C | 52% | 1021.4 hPa | - | - | - | - |
| 1777907875 | 17.22° C | 53% | 1021.5 hPa | - | - | - | - |
| 1777906974 | 17.22° C | 52% | 1021.7 hPa | - | - | - | - |
| 1777906071 | 17.22° C | 53% | 1021.6 hPa | - | - | - | - |
| 1777905170 | 17.22° C | 53% | 1021.7 hPa | - | - | - | - |
| 1777904270 | 17.22° C | 53% | 1021.6 hPa | - | - | - | - |
| 1777903370 | 17.22° C | 53% | 1021.7 hPa | - | - | - | - |
| 1777902470 | 18.33° C | 52% | 1021.4 hPa | - | - | - | - |
| 1777901570 | 18.89° C | 52% | 1021.6 hPa | - | - | - | - |
| 1777900670 | 18.89° C | 53% | 1021.6 hPa | - | - | - | - |
| 1777899769 | 23.89° C | 49% | 1021.2 hPa | - | - | - | - |
| 1777898869 | 25.56° C | 47% | 1021.4 hPa | - | - | - | - |
| 1777897969 | 24.44° C | 49% | 1022.4 hPa | - | - | - | - |
| 1777897068 | 21.67° C | 51% | 1021.9 hPa | - | - | - | - |
| 1777896168 | 25° C | 48% | 1022.7 hPa | - | - | - | - |
| 1777895268 | 22.78° C | 50% | 1022.6 hPa | - | - | - | - |
| 1777894368 | 21.67° C | 51% | 1021.6 hPa | - | - | - | - |
| 1777893468 | 26.67° C | 46% | 1021.4 hPa | - | - | - | - |
| 1777892567 | 23.33° C | 50% | 1021.6 hPa | - | - | - | - |
| 1777891667 | 23.89° C | 49% | 1022.4 hPa | - | - | - | - |
| 1777890767 | 25.56° C | 48% | 1022.8 hPa | - | - | - | - |
| 1777889867 | 26.11° C | 47% | 1023.1 hPa | - | - | - | - |
| 1777888967 | 26.11° C | 46% | 1022.8 hPa | - | - | - | - |
| 1777887166 | 26.67° C | 46% | 1022.7 hPa | - | - | - | - |
* Rain since midnight (hover to see other rain measurements)
** Current wind speed in m/s (hover to see current wind gust speed)